createdAt,value
2023-05-09T00:00:11.288Z,97.70
2023-05-09T00:03:14.480Z,97.60
2023-05-09T00:06:17.991Z,97.60
2023-05-09T00:09:21.092Z,97.30
2023-05-09T00:12:24.465Z,97.60
2023-05-09T00:15:29.407Z,97.60
2023-05-09T00:18:42.672Z,97.60
2023-05-09T00:21:49.981Z,97.50
2023-05-09T00:24:53.060Z,97.70
2023-05-09T00:27:55.934Z,97.70
2023-05-09T00:30:58.283Z,97.70
2023-05-09T00:34:00.788Z,97.50
2023-05-09T00:37:04.152Z,97.40
2023-05-09T00:40:07.719Z,97.50
2023-05-09T00:43:09.889Z,97.60
2023-05-09T00:46:12.363Z,97.50
2023-05-09T00:49:15.977Z,97.70
2023-05-09T00:52:23.552Z,97.60
2023-05-09T00:55:26.702Z,97.60
2023-05-09T00:58:30.256Z,97.60
2023-05-09T01:01:32.651Z,97.70
2023-05-09T01:04:35.341Z,97.70
2023-05-09T01:08:08.682Z,97.80
2023-05-09T01:11:16.400Z,97.80
2023-05-09T01:14:37.785Z,97.70
2023-05-09T01:17:58.038Z,97.70
2023-05-09T01:21:11.361Z,97.70
2023-05-09T01:24:22.758Z,97.70
2023-05-09T01:27:39.555Z,97.80
2023-05-09T01:30:46.379Z,97.70
2023-05-09T01:33:55.415Z,97.70
2023-05-09T01:37:01.329Z,97.60
2023-05-09T01:40:08.705Z,97.50
2023-05-09T01:43:11.632Z,97.50
2023-05-09T01:46:17.261Z,97.30
2023-05-09T01:49:20.697Z,97.40
2023-05-09T01:52:24.272Z,97.50
2023-05-09T01:55:30.959Z,97.30
2023-05-09T01:58:34.711Z,97.30
2023-05-09T02:01:37.718Z,97.20
2023-05-09T02:04:49.188Z,97.40
2023-05-09T02:07:51.897Z,97.40
2023-05-09T02:10:54.093Z,97.40
2023-05-09T02:13:56.270Z,97.50
2023-05-09T02:17:06.389Z,97.50
2023-05-09T02:20:12.414Z,97.60
2023-05-09T02:23:14.651Z,97.50
2023-05-09T02:26:17.541Z,97.50
2023-05-09T02:29:22.124Z,97.50
2023-05-09T02:32:27.152Z,97.50
2023-05-09T02:35:29.178Z,97.60
2023-05-09T02:38:32.365Z,97.70
2023-05-09T02:41:34.633Z,97.70
2023-05-09T02:44:37.306Z,97.90
2023-05-09T02:47:40.237Z,97.80
2023-05-09T02:50:46.029Z,98.00
2023-05-09T02:53:48.188Z,98.00
2023-05-09T02:56:50.504Z,97.90
2023-05-09T02:59:52.897Z,98.10
2023-05-09T03:02:56.126Z,98.10
2023-05-09T03:05:58.410Z,98.20
2023-05-09T03:09:00.666Z,98.00
2023-05-09T03:12:03.971Z,98.00
2023-05-09T03:15:07.648Z,97.90
2023-05-09T03:18:10.024Z,98.00
2023-05-09T03:21:12.820Z,98.10
2023-05-09T03:24:14.910Z,98.20
2023-05-09T03:27:16.953Z,98.30
2023-05-09T03:30:19.326Z,98.30
2023-05-09T03:33:21.567Z,98.50
2023-05-09T03:36:23.729Z,98.50
2023-05-09T03:39:26.036Z,98.40
2023-05-09T03:42:28.166Z,98.40
2023-05-09T03:45:30.727Z,98.80
2023-05-09T03:48:33.164Z,99.00
2023-05-09T03:51:35.387Z,98.90
2023-05-09T03:54:37.480Z,98.90
2023-05-09T03:57:39.882Z,99.00
2023-05-09T04:00:45.041Z,99.00
2023-05-09T04:03:47.471Z,99.10
2023-05-09T04:06:49.536Z,99.10
2023-05-09T04:09:51.755Z,99.10
2023-05-09T04:12:53.836Z,99.20
2023-05-09T04:16:02.294Z,99.20
2023-05-09T04:19:04.545Z,99.10
2023-05-09T04:22:06.950Z,99.10
2023-05-09T04:25:12.677Z,99.30
2023-05-09T04:28:14.916Z,99.50
2023-05-09T04:31:17.666Z,99.50
2023-05-09T04:34:19.940Z,99.70
2023-05-09T04:37:22.087Z,99.80
2023-05-09T04:40:26.179Z,99.80
2023-05-09T04:43:30.029Z,99.90
2023-05-09T04:46:32.574Z,99.90
2023-05-09T04:49:34.958Z,99.90
2023-05-09T04:52:37.239Z,99.90
2023-05-09T04:55:39.366Z,99.90
2023-05-09T04:58:41.522Z,99.90
2023-05-09T05:01:44.426Z,99.90
2023-05-09T05:04:46.595Z,99.90
2023-05-09T05:07:49.007Z,99.90
2023-05-09T05:10:51.524Z,99.90
2023-05-09T05:13:53.715Z,99.90
2023-05-09T05:16:55.930Z,99.90
2023-05-09T05:19:58.178Z,99.90
2023-05-09T05:23:00.874Z,99.90
2023-05-09T05:26:03.960Z,99.90
2023-05-09T05:29:06.258Z,99.90
2023-05-09T05:32:09.327Z,99.90
2023-05-09T05:35:12.433Z,99.90
2023-05-09T05:38:14.618Z,99.90
2023-05-09T05:41:16.647Z,99.90
2023-05-09T05:44:18.733Z,99.90
2023-05-09T05:47:21.020Z,99.90
2023-05-09T05:50:23.772Z,99.90
2023-05-09T05:53:26.109Z,99.90
2023-05-09T05:56:28.295Z,99.90
2023-05-09T05:59:30.384Z,99.90
2023-05-09T06:02:32.638Z,99.90
2023-05-09T06:05:35.291Z,99.90
2023-05-09T06:08:37.466Z,99.90
2023-05-09T06:11:39.821Z,99.90
2023-05-09T06:14:41.797Z,99.90
2023-05-09T06:17:44.518Z,99.80
2023-05-09T06:20:47.593Z,99.60
2023-05-09T06:24:05.105Z,99.40
2023-05-09T06:27:11.830Z,99.30
2023-05-09T06:30:25.830Z,99.30
2023-05-09T06:33:29.145Z,99.10
2023-05-09T06:36:32.475Z,98.90
2023-05-09T06:39:34.705Z,98.90
2023-05-09T06:42:36.879Z,98.70
2023-05-09T06:45:41.158Z,98.40
2023-05-09T06:48:43.532Z,98.40
2023-05-09T06:51:46.028Z,98.60
2023-05-09T06:54:48.376Z,98.80
2023-05-09T06:57:50.829Z,98.90
2023-05-09T07:00:53.538Z,99.20
2023-05-09T07:03:55.846Z,99.30
2023-05-09T07:07:00.340Z,99.50
2023-05-09T07:10:11.366Z,99.70
2023-05-09T07:13:14.843Z,99.70
2023-05-09T07:16:18.643Z,99.90
2023-05-09T07:19:21.819Z,99.90
2023-05-09T07:22:24.391Z,99.90
2023-05-09T07:25:26.962Z,99.90
2023-05-09T07:28:29.080Z,99.90
2023-05-09T07:31:31.417Z,99.80
2023-05-09T07:34:33.619Z,99.40
2023-05-09T07:37:36.092Z,98.50
2023-05-09T07:40:38.908Z,97.80
2023-05-09T07:43:41.247Z,97.50
2023-05-09T07:46:43.432Z,97.10
2023-05-09T07:49:46.831Z,97.00
2023-05-09T07:52:49.438Z,97.20
2023-05-09T07:55:53.038Z,97.10
2023-05-09T07:58:55.879Z,97.20
2023-05-09T08:01:58.397Z,96.70
2023-05-09T08:05:00.910Z,96.50
2023-05-09T08:08:03.613Z,96.90
2023-05-09T08:11:06.217Z,96.70
2023-05-09T08:14:15.664Z,95.90
2023-05-09T08:17:18.075Z,96.20
2023-05-09T08:20:20.233Z,95.90
2023-05-09T08:23:22.326Z,95.80
2023-05-09T08:26:24.502Z,95.90
2023-05-09T08:29:26.642Z,95.70
2023-05-09T08:32:29.049Z,96.00
2023-05-09T08:35:31.342Z,96.00
2023-05-09T08:38:33.917Z,96.30
2023-05-09T08:41:37.054Z,95.70
2023-05-09T08:44:40.363Z,95.30
2023-05-09T08:47:42.970Z,95.10
2023-05-09T08:50:45.524Z,94.40
2023-05-09T08:53:48.134Z,94.20
2023-05-09T08:56:51.220Z,94.20
2023-05-09T08:59:53.924Z,94.20
2023-05-09T09:03:04.112Z,94.30
2023-05-09T09:06:09.572Z,94.00
2023-05-09T09:09:13.908Z,93.80
2023-05-09T09:12:17.701Z,93.30
2023-05-09T09:15:22.690Z,92.40
2023-05-09T09:18:30.307Z,92.40
2023-05-09T09:21:33.731Z,92.50
2023-05-09T09:24:36.337Z,92.70
2023-05-09T09:27:38.602Z,92.50
2023-05-09T09:30:49.373Z,91.80
2023-05-09T09:33:51.972Z,91.60
2023-05-09T09:36:54.234Z,91.30
2023-05-09T09:39:58.796Z,91.30
2023-05-09T09:43:07.386Z,91.90
2023-05-09T09:46:09.999Z,91.80
2023-05-09T09:49:17.721Z,91.90
2023-05-09T09:52:27.047Z,92.30
2023-05-09T09:55:29.859Z,92.40
2023-05-09T09:58:32.126Z,92.30
2023-05-09T10:01:34.161Z,92.40
2023-05-09T10:04:39.033Z,92.60
2023-05-09T10:07:41.237Z,92.40
2023-05-09T10:10:43.816Z,92.40
2023-05-09T10:13:46.548Z,92.50
2023-05-09T10:16:49.884Z,92.30
2023-05-09T10:19:54.090Z,92.40
2023-05-09T10:23:01.567Z,92.80
2023-05-09T10:26:12.493Z,92.40
2023-05-09T10:29:22.998Z,92.50
2023-05-09T10:32:31.857Z,92.30
2023-05-09T10:35:40.187Z,91.40
2023-05-09T10:38:43.002Z,91.30
2023-05-09T10:41:49.872Z,91.30
2023-05-09T10:44:53.895Z,90.90
2023-05-09T10:47:57.112Z,91.00
2023-05-09T10:51:04.080Z,91.00
2023-05-09T10:54:15.869Z,91.00
2023-05-09T10:57:20.992Z,91.40
2023-05-09T11:00:25.313Z,91.80
2023-05-09T11:03:29.290Z,90.90
2023-05-09T11:06:51.220Z,90.80
2023-05-09T11:10:07.667Z,88.10
2023-05-09T11:13:10.024Z,86.90
2023-05-09T11:16:12.759Z,86.70
2023-05-09T11:19:38.372Z,86.50
2023-05-09T11:22:43.073Z,84.60
2023-05-09T11:25:49.872Z,85.20
2023-05-09T11:28:54.298Z,84.30
2023-05-09T11:32:07.954Z,84.00
2023-05-09T11:35:16.239Z,85.70
2023-05-09T11:38:22.947Z,85.30
2023-05-09T11:41:27.595Z,83.80
2023-05-09T11:44:33.592Z,83.60
2023-05-09T11:47:38.511Z,83.10
2023-05-09T11:50:43.137Z,82.90
2023-05-09T11:53:49.786Z,85.00
2023-05-09T11:56:51.917Z,86.40
2023-05-09T11:59:54.208Z,85.10
2023-05-09T12:02:57.844Z,85.30
2023-05-09T12:06:00.436Z,85.40
2023-05-09T12:09:02.970Z,85.50
2023-05-09T12:12:11.974Z,86.70
2023-05-09T12:15:16.161Z,88.40
2023-05-09T12:18:18.710Z,88.60
2023-05-09T12:21:48.732Z,88.40
2023-05-09T12:24:52.209Z,85.70
2023-05-09T12:27:54.764Z,86.80
2023-05-09T12:30:57.344Z,85.60
2023-05-09T12:34:01.886Z,85.00
2023-05-09T12:37:04.070Z,86.80
2023-05-09T12:40:15.891Z,87.10
2023-05-09T12:43:24.815Z,87.00
2023-05-09T12:46:27.650Z,87.40
2023-05-09T12:49:31.459Z,86.80
2023-05-09T12:52:36.765Z,87.60
2023-05-09T12:55:42.419Z,86.90
2023-05-09T12:58:55.009Z,86.30
2023-05-09T13:01:59.711Z,86.50
2023-05-09T13:05:20.784Z,86.80
2023-05-09T13:08:23.282Z,87.20
2023-05-09T13:11:26.034Z,87.30
2023-05-09T13:14:28.594Z,86.20
2023-05-09T13:17:30.777Z,86.90
2023-05-09T13:20:32.961Z,86.70
2023-05-09T13:23:35.092Z,87.60
2023-05-09T13:26:37.217Z,87.70
2023-05-09T13:29:39.412Z,87.70
2023-05-09T13:32:41.576Z,87.20
2023-05-09T13:35:43.690Z,87.80
2023-05-09T13:38:46.237Z,87.80
2023-05-09T13:41:48.774Z,87.80
2023-05-09T13:44:50.875Z,87.60
2023-05-09T13:47:53.168Z,87.60
2023-05-09T13:50:57.606Z,86.60
2023-05-09T13:53:59.866Z,86.80
2023-05-09T13:57:03.730Z,86.50
2023-05-09T14:00:07.141Z,86.30
2023-05-09T14:03:09.453Z,86.90
2023-05-09T14:06:15.468Z,86.70
2023-05-09T14:09:17.875Z,86.10
2023-05-09T14:12:20.310Z,84.70
2023-05-09T14:15:22.372Z,83.90
2023-05-09T14:18:24.774Z,84.90
2023-05-09T14:21:27.335Z,84.50
2023-05-09T14:24:30.996Z,85.20
2023-05-09T14:27:36.970Z,84.10
2023-05-09T14:30:40.406Z,83.30
2023-05-09T14:33:44.051Z,84.60
2023-05-09T14:36:47.656Z,85.20
2023-05-09T14:39:51.091Z,84.50
2023-05-09T14:42:53.194Z,84.10
2023-05-09T14:45:55.646Z,83.30
2023-05-09T14:49:04.032Z,82.50
2023-05-09T14:52:06.327Z,82.10
2023-05-09T14:55:08.706Z,81.80
2023-05-09T14:58:13.494Z,80.30
2023-05-09T15:01:16.256Z,81.00
2023-05-09T15:04:36.004Z,82.30
2023-05-09T15:07:38.830Z,80.60
2023-05-09T15:10:41.864Z,81.60
2023-05-09T15:13:43.978Z,82.40
2023-05-09T15:16:47.052Z,83.20
2023-05-09T15:19:49.467Z,83.30
2023-05-09T15:22:51.678Z,82.80
2023-05-09T15:25:56.435Z,82.80
2023-05-09T15:29:01.275Z,82.80
2023-05-09T15:32:06.567Z,83.20
2023-05-09T15:35:09.185Z,83.10
2023-05-09T15:38:12.287Z,83.50
2023-05-09T15:41:15.543Z,82.90
2023-05-09T15:44:17.957Z,82.80
2023-05-09T15:47:21.248Z,83.50
2023-05-09T15:50:23.554Z,84.20
2023-05-09T15:53:27.670Z,85.20
2023-05-09T15:56:29.700Z,84.90
2023-05-09T15:59:31.915Z,84.30
2023-05-09T16:02:34.313Z,84.40
2023-05-09T16:05:36.382Z,84.80
2023-05-09T16:08:38.523Z,85.50
2023-05-09T16:11:41.794Z,85.90
2023-05-09T16:14:43.985Z,85.70
2023-05-09T16:17:46.242Z,85.80
2023-05-09T16:20:48.840Z,85.30
2023-05-09T16:23:51.168Z,84.90
2023-05-09T16:26:53.510Z,86.00
2023-05-09T16:29:55.578Z,86.10
2023-05-09T16:32:57.866Z,85.70
2023-05-09T16:36:00.239Z,85.20
2023-05-09T16:39:02.709Z,85.50
2023-05-09T16:42:06.080Z,84.90
2023-05-09T16:45:08.611Z,86.00
2023-05-09T16:48:13.008Z,86.60
2023-05-09T16:51:15.848Z,86.60
2023-05-09T16:54:18.121Z,87.20
2023-05-09T16:57:20.696Z,86.50
2023-05-09T17:00:23.811Z,87.10
2023-05-09T17:03:26.270Z,87.70
2023-05-09T17:06:28.607Z,87.90
2023-05-09T17:09:38.317Z,87.30
2023-05-09T17:12:40.992Z,88.20
2023-05-09T17:15:43.401Z,87.40
2023-05-09T17:18:48.983Z,88.60
2023-05-09T17:21:51.509Z,89.10
2023-05-09T17:24:54.622Z,89.70
2023-05-09T17:27:57.008Z,90.00
2023-05-09T17:30:59.654Z,90.20
2023-05-09T17:34:01.912Z,90.40
2023-05-09T17:37:05.911Z,89.80
2023-05-09T17:40:08.679Z,89.20
2023-05-09T17:43:21.808Z,88.60
2023-05-09T17:46:24.358Z,88.90
2023-05-09T17:49:28.022Z,89.70
2023-05-09T17:52:30.606Z,90.00
2023-05-09T17:55:32.665Z,90.20
2023-05-09T17:58:35.033Z,90.40
2023-05-09T18:01:37.727Z,90.30
2023-05-09T18:04:40.599Z,90.20
2023-05-09T18:07:44.592Z,90.20
2023-05-09T18:10:46.980Z,90.30
2023-05-09T18:13:49.145Z,90.50
2023-05-09T18:16:51.278Z,90.50
2023-05-09T18:19:53.654Z,90.50
2023-05-09T18:22:57.297Z,90.60
2023-05-09T18:25:59.542Z,90.90
2023-05-09T18:29:02.176Z,90.80
2023-05-09T18:32:05.624Z,90.40
2023-05-09T18:35:08.749Z,90.50
2023-05-09T18:38:11.229Z,90.80
2023-05-09T18:41:15.783Z,90.80
2023-05-09T18:44:18.037Z,90.90
2023-05-09T18:47:20.194Z,91.20
2023-05-09T18:50:22.363Z,91.30
2023-05-09T18:53:27.235Z,91.50
2023-05-09T18:56:29.590Z,91.60
2023-05-09T18:59:32.017Z,91.60
2023-05-09T19:02:34.403Z,91.40
2023-05-09T19:05:36.627Z,91.50
2023-05-09T19:08:39.513Z,91.60
2023-05-09T19:11:42.500Z,91.50
2023-05-09T19:14:44.886Z,91.60
2023-05-09T19:17:48.253Z,91.80
2023-05-09T19:20:50.595Z,91.90
2023-05-09T19:23:52.726Z,91.90
2023-05-09T19:26:54.894Z,91.90
2023-05-09T19:29:57.082Z,91.70
2023-05-09T19:32:59.384Z,91.70
2023-05-09T19:36:01.618Z,91.50
2023-05-09T19:39:05.508Z,91.60
2023-05-09T19:42:08.269Z,91.60
2023-05-09T19:45:11.195Z,91.80
2023-05-09T19:48:15.632Z,92.00
2023-05-09T19:51:17.953Z,92.40
2023-05-09T19:54:19.957Z,92.00
2023-05-09T19:57:22.916Z,92.40
2023-05-09T20:00:25.221Z,92.40
2023-05-09T20:03:27.644Z,92.60
2023-05-09T20:06:29.871Z,92.70
2023-05-09T20:09:32.962Z,92.70
2023-05-09T20:12:44.747Z,93.10
2023-05-09T20:15:48.000Z,93.20
2023-05-09T20:18:52.323Z,93.30
2023-05-09T20:21:54.389Z,93.30
2023-05-09T20:24:56.993Z,93.40
2023-05-09T20:27:59.126Z,93.40
2023-05-09T20:31:01.386Z,93.50
2023-05-09T20:34:16.137Z,93.60
2023-05-09T20:37:18.226Z,93.80
2023-05-09T20:40:20.903Z,93.90
2023-05-09T20:43:23.218Z,93.90
2023-05-09T20:46:25.702Z,93.90
2023-05-09T20:49:27.719Z,93.80
2023-05-09T20:52:30.094Z,93.80
2023-05-09T20:55:32.148Z,93.90
2023-05-09T20:58:35.220Z,94.00
2023-05-09T21:01:39.773Z,94.00
2023-05-09T21:04:41.885Z,94.00
2023-05-09T21:07:43.969Z,94.00
2023-05-09T21:10:46.221Z,94.00
2023-05-09T21:13:48.736Z,94.10
2023-05-09T21:16:51.852Z,94.40
2023-05-09T21:19:53.908Z,94.40
2023-05-09T21:22:56.175Z,94.50
2023-05-09T21:25:58.194Z,94.40
2023-05-09T21:29:00.184Z,94.40
2023-05-09T21:32:03.130Z,94.50
2023-05-09T21:35:10.602Z,94.40
2023-05-09T21:38:13.198Z,94.50
2023-05-09T21:41:15.347Z,94.60
2023-05-09T21:44:17.483Z,94.50
2023-05-09T21:47:20.235Z,94.60
2023-05-09T21:50:22.504Z,94.60
2023-05-09T21:53:25.607Z,94.70
2023-05-09T21:56:28.116Z,94.40
2023-05-09T21:59:30.506Z,94.30
2023-05-09T22:02:34.472Z,94.40
2023-05-09T22:05:36.671Z,94.30
2023-05-09T22:08:38.970Z,94.30
2023-05-09T22:11:41.163Z,94.20
2023-05-09T22:14:55.385Z,94.10
2023-05-09T22:17:59.820Z,94.00
2023-05-09T22:21:02.004Z,93.80
2023-05-09T22:24:04.413Z,93.90
2023-05-09T22:27:06.559Z,93.70
2023-05-09T22:30:09.377Z,93.70
2023-05-09T22:33:15.786Z,93.60
2023-05-09T22:36:19.071Z,93.30
2023-05-09T22:39:22.122Z,93.40
2023-05-09T22:42:24.212Z,93.50
2023-05-09T22:45:26.336Z,93.50
2023-05-09T22:48:28.743Z,93.30
2023-05-09T22:51:31.775Z,93.30
2023-05-09T22:55:11.535Z,93.40
2023-05-09T23:02:11.126Z,93.20
2023-05-09T23:05:32.827Z,93.10
2023-05-09T23:12:33.855Z,93.40
2023-05-09T23:15:36.335Z,93.40
2023-05-09T23:18:38.691Z,93.30
2023-05-09T23:21:41.274Z,93.30
2023-05-09T23:24:43.349Z,93.40
2023-05-09T23:27:46.981Z,93.40
2023-05-09T23:30:49.393Z,93.30
2023-05-09T23:33:52.963Z,93.40
2023-05-09T23:36:56.848Z,93.90
2023-05-09T23:39:59.195Z,93.50
2023-05-09T23:43:02.238Z,93.60
2023-05-09T23:46:04.394Z,93.60
2023-05-09T23:49:07.408Z,93.60
2023-05-09T23:52:10.192Z,93.50
2023-05-09T23:55:12.294Z,93.40
2023-05-09T23:58:14.597Z,93.40
